createdAt,value
2017-07-27T00:00:13.584Z,99.90
2017-07-27T00:02:41.450Z,99.90
2017-07-27T00:05:09.008Z,99.90
2017-07-27T00:07:36.583Z,99.90
2017-07-27T00:15:49.654Z,99.90
2017-07-27T00:18:17.213Z,99.90
2017-07-27T00:20:44.763Z,99.90
2017-07-27T00:23:12.649Z,99.90
2017-07-27T00:25:40.240Z,99.90
2017-07-27T00:28:07.801Z,99.90
2017-07-27T00:30:35.491Z,99.90
2017-07-27T00:33:03.059Z,99.90
2017-07-27T00:35:30.623Z,99.90
2017-07-27T00:37:58.343Z,99.90
2017-07-27T00:40:25.900Z,99.90
2017-07-27T00:42:53.463Z,99.90
2017-07-27T00:45:21.283Z,99.90
2017-07-27T00:47:48.831Z,99.90
2017-07-27T00:50:16.387Z,99.90
2017-07-27T00:52:44.062Z,99.90
2017-07-27T00:55:11.604Z,99.90
2017-07-27T00:57:39.161Z,99.90
2017-07-27T01:00:06.762Z,99.90
2017-07-27T01:02:34.325Z,99.90
2017-07-27T01:05:01.899Z,99.90
2017-07-27T01:07:29.599Z,99.90
2017-07-27T01:09:57.157Z,99.90
2017-07-27T01:12:24.740Z,99.90
2017-07-27T01:14:52.530Z,99.90
2017-07-27T01:17:20.083Z,99.90
2017-07-27T01:19:47.658Z,99.90
2017-07-27T01:22:15.266Z,99.90
2017-07-27T01:24:42.816Z,99.90
2017-07-27T01:27:10.376Z,99.90
2017-07-27T01:29:38.110Z,99.90
2017-07-27T01:32:05.670Z,99.90
2017-07-27T01:34:33.219Z,99.90
2017-07-27T01:37:00.832Z,99.90
2017-07-27T01:39:28.385Z,99.90
2017-07-27T01:41:55.945Z,99.90
2017-07-27T01:44:23.619Z,99.90
2017-07-27T01:46:51.186Z,99.90
2017-07-27T01:49:18.760Z,99.90
2017-07-27T01:51:46.458Z,99.90
2017-07-27T01:54:14.018Z,99.90
2017-07-27T01:56:41.578Z,99.90
2017-07-27T01:59:09.482Z,99.90
2017-07-27T02:01:37.075Z,99.90
2017-07-27T02:04:04.629Z,99.90
2017-07-27T02:06:32.234Z,99.90
2017-07-27T02:08:59.794Z,99.90
2017-07-27T02:11:27.354Z,99.90
2017-07-27T02:13:55.111Z,99.90
2017-07-27T02:16:22.679Z,99.90
2017-07-27T02:18:50.251Z,99.90
2017-07-27T02:21:17.979Z,99.90
2017-07-27T02:23:45.543Z,99.90
2017-07-27T02:26:13.106Z,99.90
2017-07-27T02:28:40.836Z,99.90
2017-07-27T02:31:08.391Z,99.90
2017-07-27T02:33:35.951Z,99.90
2017-07-27T02:36:03.651Z,99.90
2017-07-27T02:38:31.194Z,99.90
2017-07-27T02:40:58.750Z,99.90
2017-07-27T02:43:26.343Z,99.90
2017-07-27T02:45:53.900Z,99.90
2017-07-27T02:48:21.450Z,99.90
2017-07-27T02:50:49.178Z,99.90
2017-07-27T02:53:16.732Z,99.90
2017-07-27T02:55:44.274Z,99.90
2017-07-27T02:58:12.014Z,99.90
2017-07-27T03:00:39.579Z,99.90
2017-07-27T03:03:07.132Z,99.90
2017-07-27T03:05:34.734Z,99.90
2017-07-27T03:08:02.293Z,99.90
2017-07-27T03:10:29.834Z,99.90
2017-07-27T03:12:57.570Z,99.90
2017-07-27T03:15:25.127Z,99.90
2017-07-27T03:17:52.683Z,99.90
2017-07-27T03:20:20.527Z,99.90
2017-07-27T03:22:48.078Z,99.90
2017-07-27T03:25:15.627Z,99.90
2017-07-27T03:27:43.367Z,99.90
2017-07-27T03:30:10.920Z,99.90
2017-07-27T03:32:38.486Z,99.90
2017-07-27T03:35:06.359Z,99.90
2017-07-27T03:37:33.919Z,99.90
2017-07-27T03:40:01.477Z,99.90
2017-07-27T03:42:29.220Z,99.90
2017-07-27T03:44:56.796Z,99.90
2017-07-27T03:47:24.368Z,99.90
2017-07-27T03:49:52.041Z,99.90
2017-07-27T03:52:19.598Z,99.90
2017-07-27T03:54:47.180Z,99.90
2017-07-27T03:57:14.782Z,99.90
2017-07-27T03:59:42.330Z,99.90
2017-07-27T04:02:09.888Z,99.90
2017-07-27T04:04:37.750Z,99.90
2017-07-27T04:07:05.313Z,99.90
2017-07-27T04:09:32.859Z,99.90
2017-07-27T04:12:00.612Z,99.90
2017-07-27T04:14:28.170Z,99.90
2017-07-27T04:16:55.726Z,99.90
2017-07-27T04:19:23.313Z,99.90
2017-07-27T04:21:50.870Z,99.90
2017-07-27T04:24:18.428Z,99.90
2017-07-27T04:26:46.022Z,99.90
2017-07-27T04:29:14.783Z,99.90
2017-07-27T04:31:42.355Z,99.90
2017-07-27T04:34:10.089Z,99.90
2017-07-27T04:36:37.659Z,99.90
2017-07-27T04:39:05.232Z,99.90
2017-07-27T04:41:32.978Z,99.90
2017-07-27T04:44:00.549Z,99.90
2017-07-27T04:46:28.116Z,99.90
2017-07-27T04:48:55.799Z,99.90
2017-07-27T04:51:23.360Z,99.90
2017-07-27T04:53:50.914Z,99.90
2017-07-27T04:56:18.506Z,99.90
2017-07-27T04:58:46.087Z,99.90
2017-07-27T05:01:13.669Z,99.90
2017-07-27T05:03:41.267Z,99.90
2017-07-27T05:06:08.821Z,99.90
2017-07-27T05:08:36.395Z,99.90
2017-07-27T05:11:03.995Z,99.90
2017-07-27T05:13:31.569Z,99.90
2017-07-27T05:15:59.143Z,99.90
2017-07-27T05:18:26.962Z,99.90
2017-07-27T05:20:54.522Z,99.90
2017-07-27T05:23:22.091Z,99.90
2017-07-27T05:25:49.718Z,99.90
2017-07-27T05:28:17.267Z,99.90
2017-07-27T05:30:44.836Z,99.90
2017-07-27T05:33:12.433Z,99.90
2017-07-27T05:35:40.014Z,99.90
2017-07-27T05:38:07.575Z,99.90
2017-07-27T05:40:35.319Z,99.90
2017-07-27T05:43:02.886Z,99.90
2017-07-27T05:45:30.459Z,99.90
2017-07-27T05:47:58.183Z,99.90
2017-07-27T05:50:25.760Z,99.90
2017-07-27T05:52:53.324Z,99.90
2017-07-27T05:55:21.075Z,99.90
2017-07-27T05:57:48.632Z,99.90
2017-07-27T06:00:16.195Z,99.90
2017-07-27T06:02:43.947Z,99.90
2017-07-27T06:05:11.512Z,99.90
2017-07-27T06:07:39.081Z,99.90
2017-07-27T06:10:06.813Z,99.90
2017-07-27T06:12:35.869Z,99.90
2017-07-27T06:15:03.427Z,99.90
2017-07-27T06:17:31.014Z,99.90
2017-07-27T06:19:58.596Z,99.90
2017-07-27T06:22:26.318Z,99.90
2017-07-27T06:24:54.251Z,99.90
2017-07-27T06:27:21.801Z,99.90
2017-07-27T06:29:49.379Z,99.90
2017-07-27T06:32:16.971Z,99.90
2017-07-27T06:34:44.544Z,99.90
2017-07-27T06:37:12.109Z,99.90
2017-07-27T06:39:39.700Z,99.90
2017-07-27T06:42:07.251Z,99.90
2017-07-27T06:44:34.807Z,99.90
2017-07-27T06:47:02.413Z,99.90
2017-07-27T06:49:29.972Z,99.90
2017-07-27T06:51:57.531Z,99.90
2017-07-27T06:54:25.408Z,99.90
2017-07-27T06:56:52.960Z,99.90
2017-07-27T06:59:20.516Z,99.90
2017-07-27T07:01:48.355Z,99.90
2017-07-27T07:04:15.906Z,99.90
2017-07-27T07:06:43.459Z,99.90
2017-07-27T07:09:11.146Z,99.90
2017-07-27T07:11:38.719Z,99.90
2017-07-27T07:14:06.265Z,99.90
2017-07-27T07:16:34.023Z,99.90
2017-07-27T07:19:01.575Z,99.90
2017-07-27T07:21:29.124Z,99.90
2017-07-27T07:23:57.007Z,99.90
2017-07-27T07:26:24.551Z,99.90
2017-07-27T07:28:52.097Z,99.90
2017-07-27T07:31:19.700Z,99.90
2017-07-27T07:33:47.264Z,99.90
2017-07-27T07:36:14.812Z,99.90
2017-07-27T07:38:42.493Z,99.90
2017-07-27T07:41:10.051Z,99.90
2017-07-27T07:43:37.611Z,99.90
2017-07-27T07:46:05.192Z,99.90
2017-07-27T07:48:32.744Z,99.90
2017-07-27T07:51:00.292Z,99.90
2017-07-27T07:53:27.920Z,99.90
2017-07-27T07:55:55.476Z,99.90
2017-07-27T07:58:23.017Z,99.90
2017-07-27T08:00:50.602Z,99.90
2017-07-27T08:03:18.155Z,99.90
2017-07-27T08:05:45.705Z,99.90
2017-07-27T08:08:13.388Z,99.90
2017-07-27T08:10:40.944Z,99.90
2017-07-27T08:13:08.491Z,99.90
2017-07-27T08:15:36.206Z,99.90
2017-07-27T08:18:03.760Z,99.90
2017-07-27T08:20:31.309Z,99.90
2017-07-27T08:22:58.937Z,99.90
2017-07-27T08:25:26.495Z,99.90
2017-07-27T08:27:54.042Z,99.90
2017-07-27T08:30:22.500Z,99.90
2017-07-27T08:32:50.067Z,99.90
2017-07-27T08:35:17.615Z,99.90
2017-07-27T08:37:45.305Z,99.90
2017-07-27T08:40:12.859Z,99.90
2017-07-27T08:42:40.413Z,99.90
2017-07-27T08:45:08.151Z,99.90
2017-07-27T08:47:35.703Z,99.90
2017-07-27T08:50:03.334Z,99.90
2017-07-27T08:52:30.971Z,99.90
2017-07-27T08:54:58.525Z,99.90
2017-07-27T08:57:26.081Z,99.90
2017-07-27T08:59:53.793Z,99.90
2017-07-27T09:02:21.370Z,99.90
2017-07-27T09:04:48.931Z,99.90
2017-07-27T09:07:16.545Z,99.90
2017-07-27T09:09:44.102Z,99.90
2017-07-27T09:12:11.655Z,99.90
2017-07-27T09:14:39.549Z,99.90
2017-07-27T09:17:07.110Z,99.90
2017-07-27T09:19:34.664Z,99.90
2017-07-27T09:22:02.281Z,99.90
2017-07-27T09:24:29.849Z,99.90
2017-07-27T09:26:57.407Z,99.90
2017-07-27T09:29:24.990Z,99.90
2017-07-27T09:31:52.543Z,99.90
2017-07-27T09:34:20.098Z,99.90
2017-07-27T09:36:47.692Z,99.90
2017-07-27T09:39:15.243Z,99.90
2017-07-27T09:41:42.803Z,99.90
2017-07-27T09:44:10.618Z,99.90
2017-07-27T09:46:38.178Z,99.90
2017-07-27T09:49:05.730Z,99.90
2017-07-27T09:51:33.624Z,99.90
2017-07-27T09:54:01.183Z,99.90
2017-07-27T09:56:28.747Z,99.90
2017-07-27T09:58:56.586Z,99.90
2017-07-27T10:01:24.138Z,99.90
2017-07-27T10:03:51.694Z,99.90
2017-07-27T10:06:19.300Z,99.90
2017-07-27T10:08:46.847Z,99.90
2017-07-27T10:11:14.403Z,99.90
2017-07-27T10:13:42.148Z,99.90
2017-07-27T10:16:09.715Z,99.90
2017-07-27T10:18:37.272Z,99.90
2017-07-27T10:21:04.963Z,99.90
2017-07-27T10:23:32.524Z,99.90
2017-07-27T10:26:00.080Z,99.90
2017-07-27T10:28:27.759Z,99.90
2017-07-27T10:30:55.323Z,99.90
2017-07-27T10:33:23.059Z,99.90
2017-07-27T10:35:50.806Z,99.90
2017-07-27T10:38:18.361Z,99.90
2017-07-27T10:40:45.916Z,99.90
2017-07-27T10:43:13.642Z,99.90
2017-07-27T10:45:41.190Z,99.90
2017-07-27T10:48:08.735Z,99.90
2017-07-27T10:50:36.354Z,99.90
2017-07-27T10:53:03.903Z,99.90
2017-07-27T10:55:31.443Z,99.90
2017-07-27T10:57:59.170Z,99.90
2017-07-27T11:00:26.713Z,99.90
2017-07-27T11:02:54.272Z,99.90
2017-07-27T11:05:22.003Z,99.90
2017-07-27T11:07:49.577Z,99.90
2017-07-27T11:10:17.222Z,99.90
2017-07-27T11:12:45.013Z,99.90
2017-07-27T11:15:12.668Z,99.90
2017-07-27T11:17:40.324Z,99.90
2017-07-27T11:20:07.943Z,99.90
2017-07-27T11:22:35.482Z,99.90
2017-07-27T11:25:03.070Z,99.90
2017-07-27T11:27:30.658Z,99.90
2017-07-27T11:30:00.185Z,99.90
2017-07-27T11:32:27.722Z,99.90
2017-07-27T11:34:55.414Z,99.90
2017-07-27T11:37:22.983Z,99.90
2017-07-27T11:39:50.534Z,99.90
2017-07-27T11:42:18.278Z,99.90
2017-07-27T11:44:45.842Z,99.70
2017-07-27T11:47:13.388Z,99.90
2017-07-27T11:49:40.971Z,99.60
2017-07-27T11:52:08.535Z,99.90
2017-07-27T11:54:36.081Z,99.90
2017-07-27T11:57:03.887Z,99.90
2017-07-27T11:59:31.486Z,99.90
2017-07-27T12:01:59.038Z,99.90
2017-07-27T12:04:26.784Z,99.90
2017-07-27T12:06:54.326Z,99.90
2017-07-27T12:09:21.890Z,99.90
2017-07-27T12:11:49.638Z,99.90
2017-07-27T12:14:17.190Z,99.90
2017-07-27T12:16:44.744Z,99.90
2017-07-27T12:19:12.462Z,99.90
2017-07-27T12:21:40.016Z,99.90
2017-07-27T12:24:07.561Z,99.90
2017-07-27T12:26:35.392Z,99.90
2017-07-27T12:29:02.948Z,99.90
2017-07-27T12:31:30.495Z,99.30
2017-07-27T12:33:58.220Z,99.60
2017-07-27T12:36:25.773Z,99.60
2017-07-27T12:38:53.316Z,99.50
2017-07-27T12:41:21.014Z,99.90
2017-07-27T12:43:48.572Z,99.90
2017-07-27T12:46:16.151Z,99.90
2017-07-27T12:48:43.819Z,99.50
2017-07-27T12:51:11.367Z,98.90
2017-07-27T12:53:38.899Z,99.90
2017-07-27T12:56:06.478Z,99.80
2017-07-27T12:58:34.015Z,99.60
2017-07-27T13:01:01.561Z,99.90
2017-07-27T13:03:29.151Z,98.30
2017-07-27T13:05:56.691Z,98.40
2017-07-27T13:08:24.240Z,97.10
2017-07-27T13:10:52.115Z,97.70
2017-07-27T13:13:19.872Z,97.40
2017-07-27T13:15:47.403Z,96.80
2017-07-27T13:18:15.104Z,97.30
2017-07-27T13:20:43.878Z,98.50
2017-07-27T13:23:11.439Z,99.90
2017-07-27T13:25:39.307Z,99.90
2017-07-27T13:28:06.848Z,99.90
2017-07-27T13:30:34.390Z,99.90
2017-07-27T13:33:02.111Z,99.90
2017-07-27T13:35:29.656Z,99.90
2017-07-27T13:37:57.191Z,99.90
2017-07-27T13:40:24.898Z,99.90
2017-07-27T13:42:52.446Z,99.90
2017-07-27T13:45:19.987Z,99.90
2017-07-27T13:47:47.743Z,99.90
2017-07-27T13:50:15.290Z,99.90
2017-07-27T13:52:42.828Z,99.90
2017-07-27T13:55:10.710Z,99.90
2017-07-27T13:57:38.253Z,99.90
2017-07-27T14:00:05.808Z,99.90
2017-07-27T14:02:33.510Z,99.90
2017-07-27T14:05:01.055Z,99.90
2017-07-27T14:07:28.601Z,99.90
2017-07-27T14:09:56.275Z,99.90
2017-07-27T14:12:23.824Z,99.90
2017-07-27T14:14:51.369Z,99.90
2017-07-27T14:17:19.135Z,99.90
2017-07-27T14:19:46.674Z,99.90
2017-07-27T14:22:14.211Z,99.90
2017-07-27T14:24:42.167Z,99.90
2017-07-27T14:27:09.707Z,99.90
2017-07-27T14:29:37.255Z,99.90
2017-07-27T14:32:04.843Z,99.90
2017-07-27T14:34:32.384Z,99.90
2017-07-27T14:36:59.925Z,99.90
2017-07-27T14:39:27.655Z,99.90
2017-07-27T14:41:55.198Z,99.90
2017-07-27T14:44:22.738Z,99.90
2017-07-27T14:46:50.434Z,99.90
2017-07-27T14:49:17.978Z,99.90
2017-07-27T14:51:45.588Z,99.90
2017-07-27T14:54:13.363Z,99.90
2017-07-27T14:56:40.950Z,99.90
2017-07-27T14:59:08.504Z,99.90
2017-07-27T15:01:36.091Z,99.90
2017-07-27T15:04:03.646Z,99.10
2017-07-27T15:06:31.208Z,99.80
2017-07-27T15:08:59.074Z,99.10
2017-07-27T15:11:26.632Z,99.10
2017-07-27T15:13:54.181Z,98.60
2017-07-27T15:16:21.770Z,99.10
2017-07-27T15:18:49.313Z,99.00
2017-07-27T15:21:16.863Z,98.10
2017-07-27T15:23:44.440Z,97.60
2017-07-27T15:26:11.987Z,98.60
2017-07-27T15:28:39.536Z,98.30
2017-07-27T15:31:07.142Z,98.50
2017-07-27T15:33:34.680Z,95.40
2017-07-27T15:36:02.239Z,93.20
2017-07-27T15:38:30.071Z,91.90
2017-07-27T15:40:57.625Z,91.50
2017-07-27T15:43:25.170Z,90.90
2017-07-27T15:45:52.891Z,90.10
2017-07-27T15:48:20.444Z,88.40
2017-07-27T15:50:47.990Z,89.90
2017-07-27T15:53:15.607Z,90.60
2017-07-27T15:55:43.218Z,88.30
2017-07-27T15:58:10.759Z,90.10
2017-07-27T16:00:38.495Z,90.80
2017-07-27T16:03:06.039Z,91.50
2017-07-27T16:05:33.582Z,91.60
2017-07-27T16:08:01.463Z,92.30
2017-07-27T16:10:29.018Z,92.60
2017-07-27T16:12:56.574Z,92.40
2017-07-27T16:15:24.167Z,94.00
2017-07-27T16:17:51.709Z,94.90
2017-07-27T16:20:19.262Z,94.70
2017-07-27T16:22:46.972Z,95.90
2017-07-27T16:25:14.526Z,96.00
2017-07-27T16:27:42.067Z,96.80
2017-07-27T16:30:09.787Z,97.20
2017-07-27T16:32:37.323Z,97.90
2017-07-27T16:35:04.869Z,98.60
2017-07-27T16:37:32.596Z,99.40
2017-07-27T16:40:00.145Z,99.30
2017-07-27T16:42:27.693Z,99.90
2017-07-27T16:44:55.275Z,99.90
2017-07-27T16:47:22.883Z,99.90
2017-07-27T16:49:50.453Z,99.90
2017-07-27T16:52:18.015Z,99.90
2017-07-27T16:54:45.554Z,99.90
2017-07-27T16:57:13.104Z,99.90
2017-07-27T16:59:40.735Z,99.90
2017-07-27T17:02:08.293Z,99.90
2017-07-27T17:04:35.838Z,99.90
2017-07-27T17:07:03.562Z,99.90
2017-07-27T17:09:31.118Z,99.90
2017-07-27T17:11:58.671Z,99.90
2017-07-27T17:14:26.280Z,99.90
2017-07-27T17:16:53.829Z,99.90
2017-07-27T17:19:21.378Z,99.90
2017-07-27T17:21:49.193Z,99.90
2017-07-27T17:24:16.803Z,99.90
2017-07-27T17:26:44.426Z,99.90
2017-07-27T17:29:12.028Z,99.90
2017-07-27T17:31:39.578Z,99.90
2017-07-27T17:34:07.130Z,99.90
2017-07-27T17:36:34.711Z,99.90
2017-07-27T17:39:02.265Z,99.90
2017-07-27T17:41:29.838Z,99.90
2017-07-27T17:43:57.543Z,99.90
2017-07-27T17:46:25.117Z,99.90
2017-07-27T17:48:52.688Z,99.90
2017-07-27T17:51:20.492Z,99.90
2017-07-27T17:53:48.038Z,99.90
2017-07-27T17:56:15.756Z,99.90
2017-07-27T17:58:43.376Z,99.90
2017-07-27T18:01:10.927Z,99.90
2017-07-27T18:03:38.471Z,99.90
2017-07-27T18:06:06.138Z,99.90
2017-07-27T18:08:33.707Z,99.90
2017-07-27T18:11:01.251Z,99.90
2017-07-27T18:13:30.063Z,99.90
2017-07-27T18:15:57.797Z,99.90
2017-07-27T18:18:26.040Z,99.90
2017-07-27T18:20:53.671Z,99.90
2017-07-27T18:23:21.267Z,99.90
2017-07-27T18:25:48.829Z,99.90
2017-07-27T18:28:16.845Z,99.90
2017-07-27T18:30:45.323Z,99.90
2017-07-27T18:33:13.006Z,99.90
2017-07-27T18:35:41.343Z,99.90
2017-07-27T18:38:09.024Z,99.90
2017-07-27T18:40:36.754Z,99.90
2017-07-27T18:43:04.479Z,99.90
2017-07-27T18:45:32.593Z,99.90
2017-07-27T18:48:01.393Z,99.90
2017-07-27T18:50:29.219Z,99.90
2017-07-27T18:52:56.881Z,99.90
2017-07-27T18:55:24.566Z,99.90
2017-07-27T18:57:52.180Z,99.90
2017-07-27T19:00:20.088Z,99.90
2017-07-27T19:02:47.691Z,99.90
2017-07-27T19:05:15.418Z,99.90
2017-07-27T19:07:42.966Z,99.90
2017-07-27T19:10:10.785Z,99.90
2017-07-27T19:12:39.369Z,99.90
2017-07-27T19:15:07.015Z,99.90
2017-07-27T19:17:34.997Z,99.90
2017-07-27T19:20:03.716Z,99.90
2017-07-27T19:22:31.322Z,99.90
2017-07-27T19:24:59.289Z,99.90
2017-07-27T19:27:27.244Z,99.90
2017-07-27T19:29:56.409Z,99.90
2017-07-27T19:32:24.480Z,99.90
2017-07-27T19:34:52.618Z,99.90
2017-07-27T19:37:20.243Z,99.90
2017-07-27T19:39:48.898Z,99.90
2017-07-27T19:42:17.018Z,99.90
2017-07-27T19:44:45.301Z,99.90
2017-07-27T19:47:12.871Z,99.90
2017-07-27T19:49:40.593Z,99.90
2017-07-27T19:52:08.156Z,99.90
2017-07-27T19:54:35.723Z,99.90
2017-07-27T19:57:03.568Z,99.90
2017-07-27T19:59:31.147Z,99.90
2017-07-27T20:01:58.725Z,99.90
2017-07-27T20:04:26.477Z,99.90
2017-07-27T20:06:54.056Z,99.90
2017-07-27T20:09:21.639Z,99.90
2017-07-27T20:11:49.543Z,99.90
2017-07-27T20:14:17.118Z,99.90
2017-07-27T20:16:44.702Z,99.90
2017-07-27T20:19:12.424Z,99.90
2017-07-27T20:21:39.996Z,99.90
2017-07-27T20:24:07.609Z,99.90
2017-07-27T20:26:35.344Z,99.90
2017-07-27T20:29:02.915Z,99.90
2017-07-27T20:31:31.403Z,99.90
2017-07-27T20:33:59.030Z,99.90
2017-07-27T20:36:26.578Z,99.90
2017-07-27T20:38:54.137Z,99.90
2017-07-27T20:41:25.719Z,99.90
2017-07-27T20:43:53.271Z,99.90
2017-07-27T20:46:21.224Z,99.90
2017-07-27T20:48:48.832Z,99.90
2017-07-27T20:51:16.395Z,99.90
2017-07-27T20:53:43.955Z,99.90
2017-07-27T20:56:11.696Z,99.90
2017-07-27T20:58:39.267Z,99.90
2017-07-27T21:01:06.830Z,99.90
2017-07-27T21:03:34.535Z,99.90
2017-07-27T21:06:02.095Z,99.90
2017-07-27T21:08:29.674Z,99.90
2017-07-27T21:10:57.395Z,99.90
2017-07-27T21:13:24.960Z,99.90
2017-07-27T21:15:52.534Z,99.90
2017-07-27T21:18:20.234Z,99.90
2017-07-27T21:20:47.794Z,99.90
2017-07-27T21:23:15.340Z,99.90
2017-07-27T21:25:43.080Z,99.90
2017-07-27T21:28:10.631Z,99.90
2017-07-27T21:30:38.194Z,99.90
2017-07-27T21:33:05.935Z,99.90
2017-07-27T21:35:33.492Z,99.90
2017-07-27T21:38:01.051Z,99.90
2017-07-27T21:40:28.624Z,99.90
2017-07-27T21:42:56.189Z,99.90
2017-07-27T21:45:23.735Z,99.90
2017-07-27T21:47:51.328Z,99.90
2017-07-27T21:50:18.885Z,99.90
2017-07-27T21:52:46.450Z,99.90
2017-07-27T21:55:14.075Z,99.90
2017-07-27T21:57:41.635Z,99.90
2017-07-27T22:00:09.179Z,99.90
2017-07-27T22:02:36.938Z,99.90
2017-07-27T22:05:04.497Z,99.90
2017-07-27T22:07:32.048Z,99.90
2017-07-27T22:09:59.817Z,99.90
2017-07-27T22:12:27.371Z,99.90
2017-07-27T22:14:54.923Z,99.90
2017-07-27T22:17:22.661Z,99.90
2017-07-27T22:19:50.247Z,99.90
2017-07-27T22:22:17.798Z,99.90
2017-07-27T22:24:45.650Z,99.90
2017-07-27T22:27:13.222Z,99.90
2017-07-27T22:29:40.772Z,99.90
2017-07-27T22:32:08.507Z,99.90
2017-07-27T22:34:36.071Z,99.90
2017-07-27T22:37:04.463Z,99.90
2017-07-27T22:39:32.175Z,99.90
2017-07-27T22:41:59.767Z,99.90
2017-07-27T22:44:27.355Z,99.90
2017-07-27T22:46:55.292Z,99.90
2017-07-27T22:49:22.854Z,99.90
2017-07-27T22:51:50.423Z,99.90
2017-07-27T22:54:18.014Z,99.90
2017-07-27T22:56:45.579Z,99.90
2017-07-27T22:59:13.138Z,99.90
2017-07-27T23:01:40.823Z,99.90
2017-07-27T23:04:08.387Z,99.90
2017-07-27T23:06:35.947Z,99.90
2017-07-27T23:09:03.851Z,99.90
2017-07-27T23:11:31.407Z,99.90
2017-07-27T23:13:58.979Z,99.90
2017-07-27T23:16:26.751Z,99.90
2017-07-27T23:18:54.333Z,99.90
2017-07-27T23:21:21.903Z,99.90
2017-07-27T23:23:49.531Z,99.90
2017-07-27T23:26:17.158Z,99.90
2017-07-27T23:28:44.704Z,99.90
2017-07-27T23:31:12.443Z,99.90
2017-07-27T23:33:40.003Z,99.90
2017-07-27T23:36:07.568Z,99.90
2017-07-27T23:38:35.294Z,99.90
2017-07-27T23:41:02.840Z,99.90
2017-07-27T23:43:30.394Z,99.90
2017-07-27T23:45:58.266Z,99.90
2017-07-27T23:48:25.810Z,99.90
2017-07-27T23:50:53.367Z,99.90
2017-07-27T23:53:20.974Z,99.90
2017-07-27T23:55:48.524Z,99.90
2017-07-27T23:58:16.086Z,99.90
